Terminal Aerodrome Forecast
Issued by NWS

Home | Current Version | Previous Version | Text Only | Print | Product List | Glossary On
Versions: 1 2 3 4 5 6 7 8 9 10 11 12
000
FTUS46 KSGX 051120
TAFONT
TAF
KONT 051120Z 0512/0618 VRB05KT P6SM BKN250
     FM052000 25010G18KT P6SM SCT250
     FM060200 26010KT P6SM SCT150
     FM060600 VRB04KT P6SM BKN150=

USA.gov is the U.S. government's official web portal to all federal, state and local government web resources and services.